Time;durP1;ratioP1;P1;durP2;ratioP2;P2;SDS_P1;SDS_P2;PMS_P1;PMS_P2;Temp;Humidity;BMP_temperature;BMP_pressure;BME280_temperature;BME280_humidity;BME280_pressure;Samples;Min_cycle;Max_cycle;Signal;HPM_P1;HPM_P2
2022/06/22 00:02:06;;;;;;;4.83;4.12;;;;;;;11.30;65.73;96836.65;1443781;98;26058;-78
2022/06/22 00:04:50;;;;;;;7.05;3.58;;;;;;;11.29;65.80;96839.05;1439483;98;26106;-78
2022/06/22 00:07:28;;;;;;;7.08;3.77;;;;;;;11.23;65.85;96822.42;1443844;99;26087;-78
2022/06/22 00:10:06;;;;;;;6.03;3.92;;;;;;;11.16;66.05;96821.97;1394892;99;25917;-82
2022/06/22 00:12:34;;;;;;;4.37;3.98;;;;;;;11.13;66.13;96818.90;1384084;100;28347;-80
2022/06/22 00:15:05;;;;;;;4.37;3.33;;;;;;;11.09;66.25;96814.50;1389938;101;25852;-78
2022/06/22 00:17:36;;;;;;;8.43;4.08;;;;;;;11.02;66.31;96809.70;1386650;101;25976;-80
2022/06/22 00:20:08;;;;;;;9.03;4.62;;;;;;;10.99;66.42;96816.90;1377851;103;25928;-78
2022/06/22 00:23:02;;;;;;;7.17;4.17;;;;;;;10.96;66.58;96818.73;1340261;103;25867;-78
2022/06/22 00:25:38;;;;;;;4.85;3.40;;;;;;;10.93;66.49;96818.34;1379447;102;27491;-78
2022/06/22 00:28:39;;;;;;;9.13;4.25;;;;;;;10.89;66.69;96817.97;1385177;102;25892;-78
2022/06/22 00:31:23;;;;;;;5.25;3.27;;;;;;;10.88;66.63;96827.12;1379740;102;26083;-77
2022/06/22 00:34:17;;;;;;;4.95;3.52;;;;;;;10.81;66.60;96835.84;1381466;102;27077;-78
2022/06/22 00:37:06;;;;;;;5.55;3.55;;;;;;;10.75;66.81;96834.86;1381995;102;25819;-77
2022/06/22 00:39:40;;;;;;;8.35;4.20;;;;;;;10.73;66.90;96836.98;1376271;100;27564;-78
2022/06/22 00:42:21;;;;;;;6.47;4.67;;;;;;;10.69;66.83;96844.39;1416249;99;25840;-78
2022/06/22 00:45:02;;;;;;;4.87;3.80;;;;;;;10.66;66.89;96850.23;1421842;99;26036;-82
2022/06/22 00:47:40;;;;;;;5.22;4.00;;;;;;;10.57;67.01;96848.89;1417554;99;25985;-77
2022/06/22 00:50:20;;;;;;;6.50;4.10;;;;;;;10.52;67.14;96846.03;1420354;99;25847;-77
2022/06/22 00:52:52;;;;;;;8.93;4.50;;;;;;;10.49;67.33;96854.59;1421855;99;27477;-78
2022/06/22 00:55:41;;;;;;;8.50;4.53;;;;;;;10.46;67.36;96853.99;1418336;100;26011;-80
2022/06/22 00:58:31;;;;;;;6.33;4.47;;;;;;;10.40;67.40;96858.92;1420930;100;25946;-78
2022/06/22 01:01:09;;;;;;;6.22;4.62;;;;;;;10.33;67.56;96862.22;1467545;95;26025;-80
2022/06/22 01:03:43;;;;;;;7.03;4.65;;;;;;;10.33;67.73;96858.17;1458630;97;25971;-80
2022/06/22 01:06:33;;;;;;;5.78;4.05;;;;;;;10.27;67.73;96856.88;1452444;95;28098;-80
2022/06/22 01:09:20;;;;;;;6.45;4.00;;;;;;;10.25;67.95;96864.39;1490018;95;25928;-78
2022/06/22 01:12:16;;;;;;;8.18;4.08;;;;;;;10.19;67.99;96872.00;1484406;95;26741;-78
2022/06/22 01:15:00;;;;;;;7.80;3.98;;;;;;;10.13;68.19;96864.27;1458213;95;25981;-78
2022/06/22 01:17:54;;;;;;;6.03;3.98;;;;;;;10.08;68.30;96864.09;1500109;95;25930;-80
2022/06/22 01:20:31;;;;;;;4.97;3.90;;;;;;;10.08;68.42;96864.09;1530946;92;27452;-77
2022/06/22 01:23:24;;;;;;;5.47;4.20;;;;;;;10.04;68.40;96866.91;1467096;97;25955;-77
2022/06/22 01:25:59;;;;;;;7.40;4.55;;;;;;;10.02;68.48;96863.64;1467142;96;25949;-77
2022/06/22 01:28:27;;;;;;;8.03;4.87;;;;;;;9.98;68.54;96861.07;1464551;97;25897;-81
2022/06/22 01:30:58;;;;;;;5.22;4.65;;;;;;;9.98;68.61;96871.86;1467261;97;25915;-78
2022/06/22 01:33:33;;;;;;;5.45;4.20;;;;;;;10.00;68.67;96873.81;1467607;97;27525;-77
2022/06/22 01:36:04;;;;;;;6.33;3.67;;;;;;;9.97;68.80;96871.03;1468679;96;26082;-79
2022/06/22 01:38:36;;;;;;;6.17;3.43;;;;;;;9.90;68.70;96868.09;1471729;94;26058;-76
2022/06/22 01:41:08;;;;;;;6.08;3.95;;;;;;;9.81;68.79;96867.52;1493670;94;26710;-79
2022/06/22 01:43:40;;;;;;;6.70;4.00;;;;;;;9.80;68.79;96867.73;1500958;94;26230;-78
2022/06/22 01:46:24;;;;;;;5.12;4.03;;;;;;;9.75;68.82;96873.28;1468793;94;27514;-77
2022/06/22 01:48:59;;;;;;;6.92;3.90;;;;;;;9.69;68.90;96872.80;1486809;94;26385;-81
2022/06/22 01:51:36;;;;;;;7.83;3.72;;;;;;;9.61;68.99;96874.94;1468975;95;25855;-80
2022/06/22 01:54:20;;;;;;;5.62;3.92;;;;;;;9.63;69.11;96872.86;1454739;97;25866;-78
2022/06/22 01:57:00;;;;;;;5.78;3.65;;;;;;;9.61;69.16;96881.16;1458186;98;25902;-83
2022/06/22 01:59:37;;;;;;;6.42;3.70;;;;;;;9.60;69.19;96878.16;1452405;98;28346;-78
2022/06/22 02:02:17;;;;;;;7.33;4.00;;;;;;;9.56;69.33;96879.62;1454271;96;26001;-78
2022/06/22 02:05:13;;;;;;;4.28;3.87;;;;;;;9.55;69.50;96871.23;1478750;94;25895;-78
2022/06/22 02:07:46;;;;;;;4.30;3.40;;;;;;;9.59;69.57;96871.11;1482414;93;26474;-78
2022/06/22 02:10:43;;;;;;;5.15;3.72;;;;;;;9.61;69.64;96877.11;1510787;94;25333;-78
2022/06/22 02:13:44;;;;;;;5.00;3.85;;;;;;;9.61;69.65;96882.50;1511230;94;27494;-78
2022/06/22 02:16:27;;;;;;;5.42;3.65;;;;;;;9.60;69.67;96882.72;1505293;93;25930;-78
2022/06/22 02:19:05;;;;;;;4.37;3.42;;;;;;;9.54;69.67;96887.09;1520057;88;25843;-78
2022/06/22 02:21:50;;;;;;;5.42;3.70;;;;;;;9.50;69.73;96885.89;1605055;88;26599;-78
2022/06/22 02:24:46;;;;;;;4.55;3.52;;;;;;;9.49;69.82;96881.55;1609925;88;25742;-78
2022/06/22 02:27:20;;;;;;;8.80;3.95;;;;;;;9.47;69.86;96878.76;1609430;87;27583;-77
2022/06/22 02:29:51;;;;;;;7.00;3.37;;;;;;;9.46;69.90;96882.49;1608578;87;25968;-80
2022/06/22 02:32:28;;;;;;;8.33;3.60;;;;;;;9.43;69.82;96874.84;1558017;90;26027;-80
2022/06/22 02:34:57;;;;;;;4.55;3.30;;;;;;;9.39;69.88;96883.37;1536539;92;25820;-77
2022/06/22 02:37:29;;;;;;;6.95;3.62;;;;;;;9.34;69.92;96889.09;1537371;92;26082;-77
2022/06/22 02:39:59;;;;;;;5.33;3.58;;;;;;;9.30;69.92;96883.82;1537330;91;27523;-78
2022/06/22 02:45:13;;;;;;;4.28;3.80;;;;;;;9.26;70.02;96890.19;1574519;89;25926;-77
2022/06/22 02:47:51;;;;;;;6.20;3.70;;;;;;;9.20;69.98;96891.02;1592930;88;25923;-78
2022/06/22 02:50:48;;;;;;;4.83;3.45;;;;;;;9.16;70.14;96908.67;1543017;92;25918;-79
2022/06/22 02:53:39;;;;;;;7.22;4.10;;;;;;;9.14;70.23;96918.83;1579316;89;27419;-81
2022/06/22 02:56:14;;;;;;;5.35;3.77;;;;;;;9.13;70.32;96921.73;1595102;89;25779;-79
2022/06/22 02:58:40;;;;;;;5.78;3.75;;;;;;;9.09;70.34;96931.27;1594680;89;25824;-77
2022/06/22 03:01:12;;;;;;;6.20;3.85;;;;;;;9.08;70.46;96937.69;1597291;89;26439;-77
2022/06/22 03:03:47;;;;;;;8.90;4.10;;;;;;;9.09;70.50;96932.61;1573020;91;25898;-80
2022/06/22 03:06:16;;;;;;;5.92;4.03;;;;;;;9.11;70.57;96931.88;1514246;93;27533;-78
2022/06/22 03:08:43;;;;;;;5.50;3.45;;;;;;;9.09;70.57;96937.48;1513979;94;26057;-77
2022/06/22 03:11:12;;;;;;;5.45;3.52;;;;;;;9.10;70.75;96943.69;1514070;94;25857;-77
2022/06/22 03:13:46;;;;;;;4.80;3.70;;;;;;;9.11;70.80;96938.09;1513969;94;25805;-78
2022/06/22 03:16:35;;;;;;;6.47;4.00;;;;;;;9.10;71.01;96941.00;1514019;94;25561;-77
2022/06/22 03:19:10;;;;;;;5.50;4.60;;;;;;;9.13;71.01;96952.17;1531724;92;27491;-77
2022/06/22 03:21:37;;;;;;;5.60;4.17;;;;;;;9.20;71.18;96956.17;1528675;93;25988;-77
2022/06/22 03:24:15;;;;;;;7.45;4.45;;;;;;;9.20;71.35;96956.17;1514282;94;25917;-80
2022/06/22 03:26:49;;;;;;;10.15;6.17;;;;;;;9.24;71.51;96958.76;1527989;93;25874;-79
2022/06/22 03:29:30;;;;;;;11.65;6.58;;;;;;;9.31;71.49;96968.97;1547060;88;26025;-77
2022/06/22 03:32:02;;;;;;;8.73;6.00;;;;;;;9.37;71.64;96967.61;1579657;87;27388;-76
2022/06/22 03:34:41;;;;;;;8.33;5.58;;;;;;;9.43;71.75;96973.16;1627619;86;25969;-77
2022/06/22 03:37:16;;;;;;;4.90;4.25;;;;;;;9.45;71.93;96959.80;1629100;86;25963;-77
2022/06/22 03:39:48;;;;;;;5.92;4.83;;;;;;;9.47;71.90;96950.98;1637126;86;26846;-77
2022/06/22 03:42:20;;;;;;;5.35;4.80;;;;;;;9.51;71.87;96953.56;1632749;85;26385;-77
2022/06/22 03:44:58;;;;;;;6.65;4.97;;;;;;;9.53;71.78;96955.52;1517248;92;27961;-77
2022/06/22 03:47:38;;;;;;;9.43;4.70;;;;;;;9.53;71.83;96947.96;1495328;93;25848;-77
2022/06/22 03:50:35;;;;;;;6.10;4.72;;;;;;;9.53;71.92;96943.91;1491374;94;25962;-80
2022/06/22 03:53:18;;;;;;;5.65;4.90;;;;;;;9.55;71.96;96949.38;1501068;93;25851;-80
2022/06/22 03:55:49;;;;;;;8.23;4.33;;;;;;;9.60;72.01;96948.22;1492412;95;27095;-77
2022/06/22 03:58:19;;;;;;;9.90;4.55;;;;;;;9.63;72.01;96951.83;1495028;94;27479;-78
2022/06/22 04:00:46;;;;;;;5.35;4.83;;;;;;;9.66;72.05;96941.95;1486115;95;25899;-77
2022/06/22 04:03:16;;;;;;;6.75;4.83;;;;;;;9.70;72.10;96943.17;1472511;94;25926;-77
2022/06/22 04:05:48;;;;;;;7.10;5.30;;;;;;;9.75;72.11;96945.23;1522905;92;26350;-77
2022/06/22 04:08:31;;;;;;;13.93;6.33;;;;;;;9.77;72.23;96943.67;1509966;93;25827;-78
2022/06/22 04:11:12;;;;;;;6.55;5.58;;;;;;;9.82;72.28;96946.52;1412797;101;27592;-79
2022/06/22 04:13:47;;;;;;;7.25;4.85;;;;;;;9.88;72.25;96934.88;1439418;98;26803;-80
2022/06/22 04:16:25;;;;;;;6.53;4.75;;;;;;;9.93;72.28;96932.34;1412729;99;26044;-77
2022/06/22 04:18:59;;;;;;;7.15;6.35;;;;;;;9.96;72.31;96925.17;1390399;102;26497;-77
2022/06/22 04:21:34;;;;;;;9.88;7.72;;;;;;;9.99;72.35;96920.17;1397965;102;25924;-79
2022/06/22 04:24:25;;;;;;;13.88;9.05;;;;;;;10.05;72.37;96923.84;1393438;102;27481;-77
2022/06/22 04:27:03;;;;;;;11.12;9.43;;;;;;;10.06;72.45;96926.33;1396972;101;25972;-77
2022/06/22 04:29:52;;;;;;;13.20;8.90;;;;;;;10.10;72.46;96919.98;1374858;101;26082;-79
2022/06/22 04:32:23;;;;;;;12.25;8.75;;;;;;;10.16;72.49;96930.39;1395173;102;26744;-77
2022/06/22 04:34:59;;;;;;;12.65;9.48;;;;;;;10.18;72.47;96937.25;1382740;100;25944;-78
2022/06/22 04:37:34;;;;;;;12.90;9.58;;;;;;;10.19;72.40;96941.61;1392757;101;27501;-80
2022/06/22 04:40:24;;;;;;;10.55;8.43;;;;;;;10.22;72.57;96945.22;1389676;100;26885;-77
2022/06/22 04:43:00;;;;;;;11.68;7.75;;;;;;;10.25;72.63;96943.97;1372011;104;26078;-80
2022/06/22 04:45:32;;;;;;;11.28;7.25;;;;;;;10.32;72.65;96954.16;1389162;102;26568;-77
2022/06/22 04:48:10;;;;;;;8.40;7.05;;;;;;;10.37;72.70;96952.47;1355643;105;32658;-80
2022/06/22 04:50:40;;;;;;;9.88;7.40;;;;;;;10.43;72.75;96950.22;1387564;102;27542;-79
2022/06/22 04:53:21;;;;;;;8.58;6.22;;;;;;;10.51;72.78;96957.20;1386718;102;26510;-77
2022/06/22 04:55:49;;;;;;;9.50;6.20;;;;;;;10.60;72.82;96956.41;1380596;102;25980;-77
2022/06/22 04:58:32;;;;;;;7.20;6.20;;;;;;;10.68;72.89;96952.06;1399283;102;25942;-78
2022/06/22 05:01:00;;;;;;;7.62;6.47;;;;;;;10.79;72.95;96952.67;1410380;100;25695;-78
2022/06/22 05:03:28;;;;;;;8.58;6.08;;;;;;;10.89;72.99;96958.38;1404765;101;28413;-78
2022/06/22 05:05:59;;;;;;;8.70;5.75;;;;;;;10.97;72.83;96962.16;1378702;102;26074;-77
2022/06/22 05:08:37;;;;;;;10.10;6.00;;;;;;;11.09;72.67;96957.66;1447277;97;25932;-78
2022/06/22 05:11:26;;;;;;;10.18;5.50;;;;;;;11.19;72.51;96959.30;1454584;97;25926;-77
2022/06/22 05:13:56;;;;;;;7.80;5.30;;;;;;;11.30;72.33;96955.53;1436424;98;25790;-79
2022/06/22 05:16:27;;;;;;;6.58;5.00;;;;;;;11.42;72.19;96961.30;1447087;98;27486;-80
2022/06/22 05:18:56;;;;;;;6.90;5.15;;;;;;;11.52;72.14;96958.88;1453848;98;25875;-78
2022/06/22 05:21:43;;;;;;;8.28;6.00;;;;;;;11.63;72.25;96961.33;1452876;98;25830;-79
2022/06/22 05:24:33;;;;;;;12.47;5.95;;;;;;;11.74;72.27;96968.66;1451629;98;25916;-79
2022/06/22 05:27:04;;;;;;;6.87;5.15;;;;;;;11.85;72.29;96971.97;1437494;97;26162;-79
2022/06/22 05:29:36;;;;;;;14.05;5.47;;;;;;;11.97;72.23;96969.30;1458874;97;28318;-77
2022/06/22 05:32:14;;;;;;;8.48;5.67;;;;;;;12.08;72.11;96962.27;1427960;98;25968;-77
2022/06/22 05:34:44;;;;;;;9.70;5.35;;;;;;;12.19;72.02;96965.56;1446536;96;25391;-77
2022/06/22 05:37:16;;;;;;;9.73;5.92;;;;;;;12.33;71.93;96972.91;1458506;96;25875;-77
2022/06/22 05:39:44;;;;;;;10.90;6.10;;;;;;;12.45;71.91;96968.34;1473341;94;26068;-78
2022/06/22 05:42:14;;;;;;;8.90;5.53;;;;;;;12.57;71.87;96972.71;1484247;93;28427;-78
2022/06/22 05:44:41;;;;;;;11.40;6.12;;;;;;;12.69;71.99;96980.84;1508342;91;25903;-78
2022/06/22 05:47:25;;;;;;;7.05;5.25;;;;;;;12.81;71.81;96976.25;1599723;89;25340;-81
2022/06/22 05:50:09;;;;;;;8.63;5.00;;;;;;;12.95;71.31;96972.25;1595310;89;25821;-81
2022/06/22 05:52:49;;;;;;;9.65;4.60;;;;;;;13.14;70.94;96981.11;1597541;89;26005;-77
2022/06/22 05:55:22;;;;;;;9.78;4.58;;;;;;;13.28;70.46;96985.19;1600311;89;27530;-78
2022/06/22 05:57:55;;;;;;;8.38;4.45;;;;;;;13.44;70.59;96982.80;1554354;91;26032;-78
2022/06/22 06:00:29;;;;;;;7.20;3.72;;;;;;;13.61;70.63;96985.07;1556179;88;25838;-81
2022/06/22 06:03:10;;;;;;;9.35;3.40;;;;;;;13.77;70.34;96978.03;1604509;88;25931;-81
2022/06/22 06:05:48;;;;;;;5.67;3.72;;;;;;;13.91;69.70;96982.94;1601235;88;25916;-79
2022/06/22 06:08:29;;;;;;;5.67;3.40;;;;;;;14.02;69.27;96972.56;1575253;89;27480;-79
2022/06/22 06:10:57;;;;;;;7.25;3.20;;;;;;;14.18;68.87;96968.77;1557234;89;26025;-81
2022/06/22 06:13:35;;;;;;;5.28;3.00;;;;;;;14.30;68.45;96960.02;1573569;90;26469;-81
2022/06/22 06:16:06;;;;;;;4.83;3.00;;;;;;;14.38;67.91;96956.89;1535819;91;25855;-80
2022/06/22 06:18:37;;;;;;;5.08;3.12;;;;;;;14.47;67.87;96956.83;1552819;90;25897;-78
2022/06/22 06:21:09;;;;;;;4.85;2.77;;;;;;;14.56;67.78;96951.80;1550890;91;28726;-78
2022/06/22 06:23:56;;;;;;;;;;;;;;;14.68;67.70;96956.07;1551589;92;26018;-78
2022/06/22 06:29:42;;;;;;;;;;;;;;;14.87;66.74;96949.00;1557367;91;25830;-81
2022/06/22 06:32:38;;;;;;;3.50;2.45;;;;;;;15.00;66.16;96952.19;1564414;90;25404;-81
2022/06/22 06:35:18;;;;;;;5.72;2.12;;;;;;;15.13;66.35;96952.37;1559865;89;28287;-78
2022/06/22 06:38:27;;;;;;;6.58;2.45;;;;;;;15.29;66.00;96953.41;1609718;87;26031;-78
2022/06/22 06:41:14;;;;;;;4.90;2.52;;;;;;;15.40;65.73;96956.53;1604893;88;25430;-78
2022/06/22 06:44:01;;;;;;;3.75;2.50;;;;;;;15.50;65.07;96949.86;1568639;90;25786;-78
2022/06/22 06:46:38;;;;;;;6.50;2.40;;;;;;;15.62;65.24;96951.12;1587622;88;25754;-78
2022/06/22 06:49:25;;;;;;;4.00;2.45;;;;;;;15.71;64.66;96942.24;1593234;89;27530;-80
2022/06/22 06:52:12;;;;;;;5.78;2.62;;;;;;;15.84;64.61;96938.30;1590034;89;25842;-78
2022/06/22 06:54:50;;;;;;;8.43;2.52;;;;;;;16.03;64.22;96941.51;1553240;89;25845;-80
2022/06/22 06:57:20;;;;;;;2.55;2.00;;;;;;;16.17;63.58;96943.56;1546854;91;26018;-79
2022/06/22 06:59:54;;;;;;;4.45;2.27;;;;;;;16.31;63.28;96939.84;1541758;92;25810;-78
2022/06/22 07:02:35;;;;;;;4.25;2.37;;;;;;;16.43;63.15;96935.59;1555504;90;27511;-80
2022/06/22 07:05:07;;;;;;;4.15;2.30;;;;;;;16.58;62.98;96933.82;1619820;87;25941;-80
2022/06/22 07:07:49;;;;;;;;;;;;;;;16.71;62.28;96940.76;1634047;86;25746;-81
2022/06/22 07:10:33;;;;;;;3.17;2.02;;;;;;;16.83;61.42;96938.67;1652122;85;25964;-81
2022/06/22 07:13:19;;;;;;;4.20;2.58;;;;;;;16.96;61.31;96942.84;1651828;85;25805;-81
2022/06/22 07:15:50;;;;;;;3.02;2.22;;;;;;;17.07;61.22;96940.99;1682767;83;27408;-81
2022/06/22 07:18:43;;;;;;;1.82;1.72;;;;;;;17.23;60.57;96944.09;1688637;82;25867;-82
2022/06/22 07:21:35;;;;;;;3.40;2.12;;;;;;;17.40;60.10;96947.44;1678285;84;25473;-80
2022/06/22 07:24:19;;;;;;;2.05;1.90;;;;;;;17.54;59.62;96944.50;1679810;84;25943;-78
2022/06/22 07:26:57;;;;;;;4.33;1.45;;;;;;;17.67;58.98;96948.68;1675625;84;25874;-81
2022/06/22 07:29:50;;;;;;;4.83;1.90;;;;;;;17.74;58.19;96946.54;1675817;84;28121;-84
2022/06/22 07:32:37;;;;;;;4.17;1.70;;;;;;;17.76;57.61;96936.69;1677151;84;25912;-83
2022/06/22 07:35:44;;;;;;;2.85;2.10;;;;;;;17.78;57.49;96925.78;1675911;84;25918;-83
2022/06/22 07:38:40;;;;;;;3.70;1.57;;;;;;;17.86;57.39;96924.46;1677983;84;26553;-81
2022/06/22 07:41:18;;;;;;;7.08;1.67;;;;;;;17.96;56.88;96919.84;1678882;84;25920;-80
2022/06/22 07:43:59;;;;;;;2.58;1.40;;;;;;;18.03;55.93;96915.47;1678025;84;27407;-81
2022/06/22 07:46:47;;;;;;;1.92;1.47;;;;;;;18.06;55.55;96925.86;1678332;84;25812;-79
2022/06/22 07:49:19;;;;;;;2.40;1.72;;;;;;;18.13;54.81;96922.30;1678858;84;25843;-82
2022/06/22 07:51:53;;;;;;;4.35;1.40;;;;;;;18.24;54.55;96921.77;1733962;81;25852;-83
2022/06/22 07:54:29;;;;;;;4.15;1.80;;;;;;;18.35;53.82;96926.18;1744566;81;25804;-80
2022/06/22 07:57:18;;;;;;;2.83;1.42;;;;;;;18.43;53.21;96911.14;1713095;83;28266;-79
2022/06/22 07:59:52;;;;;;;3.37;1.55;;;;;;;18.57;53.45;96906.23;1685182;84;25785;-81
2022/06/22 08:02:23;;;;;;;3.77;1.65;;;;;;;18.78;52.76;96900.77;1686220;83;25932;-81
2022/06/22 08:05:00;;;;;;;2.17;1.30;;;;;;;19.13;52.37;96909.44;1686157;83;25880;-80
2022/06/22 08:07:51;;;;;;;1.67;1.20;;;;;;;19.58;51.76;96903.00;1685855;84;25718;-81
2022/06/22 08:10:25;;;;;;;3.52;1.02;;;;;;;20.14;51.31;96898.04;1665534;85;28059;-78
2022/06/22 08:13:09;;;;;;;2.80;1.60;;;;;;;20.67;50.58;96900.38;1676465;83;26615;-80
2022/06/22 08:15:40;;;;;;;2.67;1.47;;;;;;;21.08;49.43;96899.44;1677476;83;25814;-80
2022/06/22 08:18:08;;;;;;;2.85;1.20;;;;;;;21.56;48.70;96907.70;1706712;83;25879;-83
2022/06/22 08:20:38;;;;;;;1.85;1.20;;;;;;;21.97;47.39;96905.80;1695358;83;25815;-81
2022/06/22 08:23:07;;;;;;;1.85;1.00;;;;;;;22.27;47.11;96895.19;1679354;83;27644;-81
2022/06/22 08:25:35;;;;;;;1.32;1.10;;;;;;;22.66;46.33;96891.27;1705226;83;25802;-81
2022/06/22 08:28:03;;;;;;;2.83;0.98;;;;;;;22.95;45.20;96884.17;1697807;83;26270;-78
2022/06/22 08:30:31;;;;;;;1.70;1.12;;;;;;;23.20;44.51;96893.33;1679327;83;26532;-80
2022/06/22 08:33:05;;;;;;;2.60;1.00;;;;;;;23.43;44.04;96897.56;1692650;83;26128;-82
2022/06/22 08:35:45;;;;;;;4.10;1.12;;;;;;;23.67;43.34;96885.80;1674775;84;28278;-84
2022/06/22 08:38:29;;;;;;;2.45;0.78;;;;;;;23.97;42.32;96898.94;1637099;86;26101;-79
2022/06/22 08:41:26;;;;;;;0.80;0.80;;;;;;;24.25;41.79;96896.97;1636440;86;25552;-83
2022/06/22 08:44:20;;;;;;;0.78;0.78;;;;;;;24.53;39.98;96902.36;1631221;86;26618;-82
2022/06/22 08:47:10;;;;;;;1.07;0.78;;;;;;;24.70;40.09;96901.94;1634352;86;26659;-78
2022/06/22 08:49:47;;;;;;;1.72;0.85;;;;;;;24.98;39.22;96903.20;1615781;87;28284;-79
2022/06/22 08:52:45;;;;;;;1.67;0.72;;;;;;;25.19;38.65;96896.00;1644880;86;25991;-81
2022/06/22 08:55:49;;;;;;;3.02;1.00;;;;;;;25.58;38.37;96896.58;1667467;84;25920;-79
2022/06/22 08:58:33;;;;;;;1.05;0.93;;;;;;;25.87;37.18;96900.16;1665208;85;25745;-83
2022/06/22 09:01:39;;;;;;;1.60;0.85;;;;;;;25.92;36.98;96905.55;1616487;87;25800;-80
2022/06/22 09:04:16;;;;;;;1.77;1.00;;;;;;;26.21;36.66;96906.31;1556563;90;27468;-82
2022/06/22 09:07:03;;;;;;;1.87;1.02;;;;;;;26.53;35.46;96896.77;1599202;88;26138;-80
2022/06/22 09:09:56;;;;;;;1.95;0.90;;;;;;;26.53;35.50;96899.53;1599281;86;26396;-81
2022/06/22 09:13:09;;;;;;;2.70;1.55;;;;;;;26.73;34.90;96905.78;1618631;87;25810;-79
2022/06/22 09:15:58;;;;;;;1.27;0.90;;;;;;;26.99;34.64;96898.03;1604693;88;26221;-79
2022/06/22 09:19:05;;;;;;;1.67;0.82;;;;;;;26.84;34.34;96895.98;1605642;88;27613;-82
2022/06/22 09:21:52;;;;;;;0.82;0.80;;;;;;;26.95;34.27;96898.44;1602051;87;25816;-81
2022/06/22 09:24:27;;;;;;;1.00;0.78;;;;;;;27.03;34.04;96894.86;1566741;88;25841;-78
2022/06/22 09:27:13;;;;;;;2.12;0.88;;;;;;;27.17;33.79;96902.40;1505142;91;25838;-82
2022/06/22 09:30:13;;;;;;;2.83;1.12;;;;;;;27.29;33.03;96896.17;1513261;91;25887;-81
2022/06/22 09:33:02;;;;;;;1.60;0.80;;;;;;;27.29;33.02;96894.18;1534986;90;27561;-80
2022/06/22 09:35:40;;;;;;;1.55;0.78;;;;;;;27.55;33.05;96897.70;1511064;92;25839;-78
2022/06/22 09:38:36;;;;;;;2.52;0.98;;;;;;;27.70;32.05;96906.60;1472736;94;25961;-77
2022/06/22 09:41:50;;;;;;;2.42;1.00;;;;;;;27.34;32.17;96896.78;1464679;93;25904;-84
2022/06/22 09:44:54;;;;;;;1.85;1.00;;;;;;;26.86;32.15;96898.43;1479405;96;25785;-82
2022/06/22 09:47:32;;;;;;;3.27;1.10;;;;;;;26.92;32.81;96890.78;1476622;95;28289;-86
2022/06/22 09:50:34;;;;;;;2.00;1.05;;;;;;;27.04;32.76;96888.17;1480067;95;26112;-82
2022/06/22 09:53:39;;;;;;;4.92;1.00;;;;;;;26.99;32.64;96880.03;1459922;96;25993;-83
2022/06/22 09:56:30;;;;;;;2.27;0.95;;;;;;;27.16;32.78;96878.61;1458835;97;26581;-85
2022/06/22 09:59:17;;;;;;;2.58;1.02;;;;;;;27.39;32.13;96883.33;1453518;95;26004;-80
2022/06/22 10:02:06;;;;;;;1.62;0.70;;;;;;;27.39;31.64;96881.38;1379645;102;27488;-82
2022/06/22 10:05:09;;;;;;;1.30;0.78;;;;;;;27.48;31.09;96881.33;1380417;103;25968;-81
2022/06/22 10:07:59;;;;;;;2.50;1.20;;;;;;;27.55;30.93;96881.06;1392532;102;25926;-83
2022/06/22 10:10:48;;;;;;;2.12;1.07;;;;;;;27.46;30.94;96878.06;1387242;102;26712;-81
2022/06/22 10:13:26;;;;;;;2.87;1.30;;;;;;;27.54;30.81;96883.56;1363340;104;25828;-80
2022/06/22 10:16:20;;;;;;;1.45;0.93;;;;;;;27.47;31.02;96879.70;1373978;103;27499;-82
2022/06/22 10:19:12;;;;;;;2.17;1.07;;;;;;;27.39;31.04;96877.22;1367180;103;25905;-79
2022/06/22 10:22:16;;;;;;;2.03;1.07;;;;;;;27.57;30.69;96880.16;1412892;98;25948;-82
2022/06/22 10:25:07;;;;;;;2.25;1.00;;;;;;;27.47;30.78;96887.44;1418008;98;26864;-82
2022/06/22 10:27:44;;;;;;;1.67;1.10;;;;;;;27.67;30.87;96876.77;1423412;99;26064;-81
2022/06/22 10:30:43;;;;;;;2.27;1.20;;;;;;;27.78;31.01;96873.84;1423751;99;27479;-82
2022/06/22 10:33:53;;;;;;;2.35;1.45;;;;;;;27.71;31.34;96873.58;1428268;97;25957;-80
2022/06/22 10:36:36;;;;;;;2.05;1.00;;;;;;;27.96;31.25;96865.67;1519426;94;25833;-83
2022/06/22 10:39:28;;;;;;;1.45;1.25;;;;;;;28.03;30.94;96865.12;1602885;84;25876;-82
2022/06/22 10:45:28;;;;;;;4.72;1.80;;;;;;;27.89;31.53;96863.45;1679701;83;27632;-81
2022/06/22 10:48:27;;;;;;;8.45;2.50;;;;;;;27.83;31.64;96862.58;1666285;84;26479;-81
2022/06/22 10:51:29;;;;;;;5.87;2.22;;;;;;;27.73;31.05;96860.19;1651033;84;25899;-79
2022/06/22 10:54:19;;;;;;;2.02;1.37;;;;;;;27.70;31.61;96865.02;1686262;83;26172;-82
2022/06/22 10:57:08;;;;;;;4.17;1.10;;;;;;;27.47;31.68;96852.80;1664832;84;25755;-79
2022/06/22 10:59:45;;;;;;;1.55;1.17;;;;;;;27.38;31.46;96865.89;1665567;83;27603;-81
2022/06/22 11:02:28;;;;;;;1.92;1.20;;;;;;;27.41;30.75;96855.50;1662519;84;25371;-80
2022/06/22 11:05:34;;;;;;;2.35;1.70;;;;;;;27.30;30.74;96862.56;1670867;85;25951;-80
2022/06/22 11:08:24;;;;;;;3.33;1.32;;;;;;;27.35;31.35;96864.34;1673944;85;25893;-80
2022/06/22 11:10:58;;;;;;;3.40;1.70;;;;;;;27.65;31.27;96862.45;1672951;85;25913;-80
2022/06/22 11:13:42;;;;;;;3.12;1.52;;;;;;;27.44;31.51;96861.77;1668574;83;27441;-80
2022/06/22 11:16:35;;;;;;;2.33;1.30;;;;;;;27.28;31.50;96866.26;1585881;89;26764;-80
2022/06/22 11:19:36;;;;;;;2.72;1.50;;;;;;;27.35;31.29;96872.09;1588033;88;25795;-78
2022/06/22 11:22:27;;;;;;;2.47;1.47;;;;;;;27.55;31.37;96874.14;1596227;87;25976;-79
2022/06/22 11:30:48;;;;;;;4.72;1.52;;;;;;;27.60;31.25;96868.98;1604993;87;25878;-81
2022/06/22 11:31:20;;;;;;;2.22;1.50;;;;;;;27.54;30.93;96865.55;1601419;87;25837;-81
2022/06/22 11:34:14;;;;;;;3.87;1.60;;;;;;;27.71;30.46;96853.59;1592824;88;25961;-80
2022/06/22 11:37:11;;;;;;;6.42;1.77;;;;;;;27.81;30.81;96860.13;1612591;88;25749;-85
2022/06/22 11:40:07;;;;;;;2.25;1.52;;;;;;;27.67;29.74;96861.52;1633404;85;26053;-81
2022/06/22 11:43:08;;;;;;;3.47;1.70;;;;;;;27.49;30.38;96867.14;1620397;86;28297;-83
2022/06/22 11:45:59;;;;;;;2.72;1.87;;;;;;;27.45;31.05;96863.97;1607657;88;26696;-81
2022/06/22 11:49:02;;;;;;;3.22;1.65;;;;;;;27.23;31.39;96865.05;1602106;87;25836;-79
2022/06/22 11:51:57;;;;;;;4.92;1.70;;;;;;;27.35;31.12;96855.45;1623559;86;25977;-80
2022/06/22 11:55:09;;;;;;;2.50;1.60;;;;;;;27.52;30.94;96865.66;1636410;86;26400;-80
2022/06/22 11:58:11;;;;;;;5.90;1.80;;;;;;;27.40;31.04;96861.40;1627564;86;27451;-79
2022/06/22 12:01:19;;;;;;;2.37;1.70;;;;;;;27.23;30.92;96858.93;1605563;87;25622;-81
2022/06/22 12:04:00;;;;;;;4.22;2.08;;;;;;;27.22;31.47;96862.03;1607232;87;25861;-79
2022/06/22 12:06:49;;;;;;;4.03;1.80;;;;;;;27.35;30.98;96872.09;1560720;90;25909;-78
2022/06/22 12:09:48;;;;;;;4.90;2.15;;;;;;;27.49;30.63;96862.98;1569169;89;25938;-80
2022/06/22 12:12:38;;;;;;;4.78;1.65;;;;;;;27.56;30.44;96872.99;1585464;88;28357;-81
2022/06/22 12:15:31;;;;;;;4.80;1.85;;;;;;;27.56;30.09;96872.99;1542514;91;25991;-81
2022/06/22 12:18:27;;;;;;;4.42;1.80;;;;;;;27.50;29.97;96869.34;1586460;89;25343;-77
2022/06/22 12:21:10;;;;;;;5.28;1.70;;;;;;;27.52;29.83;96879.52;1590314;87;26067;-79
2022/06/22 12:23:59;;;;;;;2.33;1.50;;;;;;;27.42;30.52;96869.59;1597498;87;26094;-82
2022/06/22 12:26:37;;;;;;;3.42;2.00;;;;;;;27.43;30.66;96869.84;1645307;85;27554;-79
2022/06/22 12:29:19;;;;;;;4.20;1.50;;;;;;;27.70;30.39;96867.78;1647345;84;25864;-81
2022/06/22 12:31:54;;;;;;;3.22;1.60;;;;;;;27.57;30.26;96869.08;1590314;87;25859;-81
2022/06/22 12:34:51;;;;;;;4.20;1.62;;;;;;;27.70;29.91;96863.63;1552339;90;25738;-80
2022/06/22 12:37:26;;;;;;;6.35;1.90;;;;;;;27.79;29.68;96849.13;1549569;90;26075;-81
2022/06/22 12:39:56;;;;;;;2.12;1.65;;;;;;;27.80;29.88;96858.50;1551657;90;26997;-78
2022/06/22 12:42:57;;;;;;;4.90;1.67;;;;;;;27.73;30.20;96867.13;1511960;92;25980;-80
2022/06/22 12:45:54;;;;;;;3.65;1.90;;;;;;;27.83;29.71;96861.19;1527774;91;25865;-78
2022/06/22 12:48:44;;;;;;;5.87;1.52;;;;;;;27.88;30.26;96861.82;1540992;91;25940;-78
2022/06/22 12:51:28;;;;;;;3.05;1.47;;;;;;;27.84;30.10;96861.43;1480223;95;25963;-77
2022/06/22 12:54:06;;;;;;;2.08;1.42;;;;;;;27.90;29.33;96848.97;1468738;97;28471;-79
2022/06/22 12:56:50;;;;;;;4.22;1.62;;;;;;;27.97;29.27;96845.11;1481185;95;25453;-79
2022/06/22 12:59:25;;;;;;;4.60;1.72;;;;;;;27.90;29.31;96848.97;1466002;96;25952;-80